createdAt,value
2018-10-05T00:01:27.190Z,0.00
2018-10-05T00:02:27.210Z,0.00
2018-10-05T00:04:20.100Z,0.00
2018-10-05T00:05:20.115Z,0.00
2018-10-05T00:07:13.024Z,0.00
2018-10-05T00:08:13.036Z,0.00
2018-10-05T00:10:05.951Z,0.00
2018-10-05T00:11:05.968Z,0.00
2018-10-05T00:12:58.875Z,0.00
2018-10-05T00:13:58.884Z,0.00
2018-10-05T00:15:51.789Z,0.00
2018-10-05T00:16:51.802Z,0.00
2018-10-05T00:18:44.906Z,0.00
2018-10-05T00:19:44.918Z,0.00
2018-10-05T00:21:37.823Z,0.00
2018-10-05T00:22:37.832Z,0.00
2018-10-05T00:24:30.732Z,0.00
2018-10-05T00:25:30.749Z,0.00
2018-10-05T00:27:23.661Z,0.00
2018-10-05T00:28:23.671Z,0.00
2018-10-05T00:30:16.567Z,0.00
2018-10-05T00:31:16.584Z,0.00
2018-10-05T00:33:09.518Z,0.00
2018-10-05T00:34:09.503Z,0.00
2018-10-05T00:36:02.403Z,0.00
2018-10-05T00:37:02.425Z,0.00
2018-10-05T00:38:55.328Z,0.00
2018-10-05T00:39:55.339Z,0.00
2018-10-05T00:41:48.248Z,0.00
2018-10-05T00:42:48.258Z,0.00
2018-10-05T00:44:41.159Z,0.00
2018-10-05T00:45:41.180Z,0.00
2018-10-05T00:47:34.084Z,0.00
2018-10-05T00:48:34.092Z,0.00
2018-10-05T00:50:26.993Z,0.00
2018-10-05T00:51:27.012Z,0.00
2018-10-05T00:53:19.986Z,0.00
2018-10-05T00:54:19.925Z,0.00
2018-10-05T00:56:12.825Z,0.00
2018-10-05T00:57:12.843Z,0.00
2018-10-05T00:59:05.762Z,0.00
2018-10-05T01:00:05.760Z,0.00
2018-10-05T01:01:58.673Z,0.00
2018-10-05T01:02:58.677Z,0.00
2018-10-05T01:04:51.573Z,0.00
2018-10-05T01:05:51.592Z,0.00
2018-10-05T01:07:44.497Z,0.00
2018-10-05T01:08:44.510Z,0.00
2018-10-05T01:10:37.409Z,0.00
2018-10-05T01:11:37.526Z,0.00
2018-10-05T01:13:30.367Z,0.00
2018-10-05T01:14:30.346Z,0.00
2018-10-05T01:16:23.253Z,0.00
2018-10-05T01:17:23.262Z,0.00
2018-10-05T01:19:16.184Z,0.00
2018-10-05T01:20:16.179Z,0.00
2018-10-05T01:22:09.108Z,0.00
2018-10-05T01:23:09.099Z,0.00
2018-10-05T01:25:01.997Z,0.00
2018-10-05T01:26:02.013Z,0.00
2018-10-05T01:27:54.923Z,0.00
2018-10-05T01:28:54.931Z,0.00
2018-10-05T01:30:47.829Z,0.00
2018-10-05T01:31:47.847Z,0.00
2018-10-05T01:33:40.754Z,0.00
2018-10-05T01:34:40.760Z,0.00
2018-10-05T01:36:33.662Z,0.00
2018-10-05T01:37:33.678Z,0.00
2018-10-05T01:39:26.583Z,0.00
2018-10-05T01:40:26.595Z,0.00
2018-10-05T01:42:19.512Z,0.00
2018-10-05T01:43:19.579Z,0.00
2018-10-05T01:45:12.601Z,0.00
2018-10-05T01:46:12.618Z,0.00
2018-10-05T01:48:05.523Z,0.00
2018-10-05T01:49:05.534Z,0.00
2018-10-05T01:50:58.429Z,0.00
2018-10-05T01:51:58.488Z,0.00
2018-10-05T01:53:51.355Z,0.00
2018-10-05T01:54:51.363Z,0.00
2018-10-05T01:56:44.262Z,0.00
2018-10-05T01:57:44.280Z,0.00
2018-10-05T01:59:37.191Z,0.00
2018-10-05T02:00:37.194Z,0.00
2018-10-05T02:02:30.126Z,0.00
2018-10-05T02:03:30.110Z,0.00
2018-10-05T02:05:23.018Z,0.00
2018-10-05T02:06:23.024Z,0.00
2018-10-05T02:08:15.932Z,0.00
2018-10-05T02:09:15.940Z,0.00
2018-10-05T02:11:08.839Z,0.00
2018-10-05T02:12:08.857Z,0.00
2018-10-05T02:14:01.763Z,0.00
2018-10-05T02:15:01.820Z,0.00
2018-10-05T02:16:54.675Z,0.00
2018-10-05T02:17:54.691Z,0.00
2018-10-05T02:19:47.600Z,0.00
2018-10-05T02:20:47.605Z,0.00
2018-10-05T02:22:40.506Z,0.00
2018-10-05T02:23:40.522Z,0.00
2018-10-05T02:25:33.526Z,0.00
2018-10-05T02:26:33.437Z,0.00
2018-10-05T02:28:26.347Z,0.00
2018-10-05T02:29:26.353Z,0.00
2018-10-05T02:31:19.252Z,0.00
2018-10-05T02:32:19.267Z,0.00
2018-10-05T02:34:12.181Z,0.00
2018-10-05T02:35:12.192Z,0.00
2018-10-05T02:37:05.131Z,0.00
2018-10-05T02:38:05.117Z,0.00
2018-10-05T02:39:58.018Z,0.00
2018-10-05T02:40:58.024Z,0.00
2018-10-05T02:42:50.931Z,0.00
2018-10-05T02:43:50.936Z,0.00
2018-10-05T02:45:43.850Z,0.00
2018-10-05T02:46:43.861Z,0.00
2018-10-05T02:48:36.763Z,0.00
2018-10-05T02:49:36.781Z,0.00
2018-10-05T02:51:29.671Z,0.00
2018-10-05T02:52:29.686Z,0.00
2018-10-05T02:54:22.594Z,0.00
2018-10-05T02:55:22.604Z,0.00
2018-10-05T02:57:15.500Z,0.00
2018-10-05T02:58:15.517Z,0.00
2018-10-05T03:00:08.421Z,0.00
2018-10-05T03:01:08.430Z,0.00
2018-10-05T03:03:01.329Z,0.00
2018-10-05T03:04:01.348Z,0.00
2018-10-05T03:05:54.255Z,0.00
2018-10-05T03:06:54.258Z,0.00
2018-10-05T03:08:47.172Z,0.00
2018-10-05T03:09:47.180Z,0.00
2018-10-05T03:11:40.081Z,0.00
2018-10-05T03:12:40.094Z,0.00
2018-10-05T03:14:33.006Z,0.00
2018-10-05T03:15:33.012Z,0.00
2018-10-05T03:17:25.917Z,0.00
2018-10-05T03:18:25.928Z,0.00
2018-10-05T03:20:18.841Z,0.00
2018-10-05T03:21:18.852Z,0.00
2018-10-05T03:23:11.747Z,0.00
2018-10-05T03:24:11.766Z,0.00
2018-10-05T03:26:04.670Z,0.00
2018-10-05T03:27:04.681Z,0.00
2018-10-05T03:28:57.585Z,0.00
2018-10-05T03:29:57.595Z,0.00
2018-10-05T03:31:50.493Z,0.00
2018-10-05T03:32:50.511Z,0.00
2018-10-05T03:34:43.420Z,0.00
2018-10-05T03:35:43.428Z,0.00
2018-10-05T03:37:43.493Z,0.00
2018-10-05T03:38:43.464Z,0.00
2018-10-05T03:40:29.259Z,0.00
2018-10-05T03:41:36.375Z,0.00
2018-10-05T03:43:22.153Z,0.00
2018-10-05T03:44:22.172Z,0.00
2018-10-05T03:46:15.072Z,0.00
2018-10-05T03:47:15.085Z,0.00
2018-10-05T03:49:07.989Z,0.00
2018-10-05T03:50:08.000Z,0.00
2018-10-05T03:52:00.899Z,0.00
2018-10-05T03:53:00.914Z,0.00
2018-10-05T03:54:53.827Z,0.00
2018-10-05T03:55:53.838Z,0.00
2018-10-05T03:57:46.739Z,0.00
2018-10-05T03:58:46.749Z,0.00
2018-10-05T04:00:39.660Z,0.00
2018-10-05T04:01:39.815Z,0.00
2018-10-05T04:03:32.721Z,0.00
2018-10-05T04:04:32.754Z,0.00
2018-10-05T04:06:25.748Z,0.00
2018-10-05T04:07:25.886Z,0.00
2018-10-05T04:09:18.723Z,0.00
2018-10-05T04:10:18.624Z,0.00
2018-10-05T04:12:11.696Z,0.00
2018-10-05T04:13:11.564Z,0.00
2018-10-05T04:15:04.479Z,0.00
2018-10-05T04:16:04.496Z,0.00
2018-10-05T04:17:57.401Z,0.00
2018-10-05T04:18:57.409Z,0.00
2018-10-05T04:20:50.416Z,0.00
2018-10-05T04:21:50.359Z,0.00
2018-10-05T04:23:43.263Z,0.00
2018-10-05T04:24:43.280Z,0.00
2018-10-05T04:26:36.182Z,0.00
2018-10-05T04:27:36.189Z,0.00
2018-10-05T04:29:29.097Z,0.00
2018-10-05T04:30:29.105Z,0.00
2018-10-05T04:32:22.005Z,0.00
2018-10-05T04:33:22.020Z,0.00
2018-10-05T04:35:14.924Z,0.00
2018-10-05T04:36:14.934Z,0.00
2018-10-05T04:38:07.835Z,0.00
2018-10-05T04:39:07.847Z,0.00
2018-10-05T04:41:00.791Z,0.00
2018-10-05T04:42:00.757Z,0.00
2018-10-05T04:43:53.658Z,0.00
2018-10-05T04:44:53.676Z,0.00
2018-10-05T04:46:46.771Z,0.00
2018-10-05T04:47:46.782Z,0.00
2018-10-05T04:49:39.818Z,0.00
2018-10-05T04:50:39.692Z,0.00
2018-10-05T04:52:32.603Z,0.00
2018-10-05T04:53:32.619Z,0.00
2018-10-05T04:55:25.540Z,0.00
2018-10-05T04:56:25.551Z,0.00
2018-10-05T04:58:18.443Z,0.00
2018-10-05T04:59:18.453Z,0.00
2018-10-05T05:01:11.911Z,4.00
2018-10-05T05:02:11.381Z,4.00
2018-10-05T05:04:04.262Z,4.00
2018-10-05T05:05:04.284Z,4.00
2018-10-05T05:06:58.189Z,4.00
2018-10-05T05:07:58.198Z,4.00
2018-10-05T05:09:51.099Z,8.00
2018-10-05T05:10:51.113Z,8.00
2018-10-05T05:12:44.008Z,16.00
2018-10-05T05:13:44.023Z,16.00
2018-10-05T05:15:36.933Z,20.00
2018-10-05T05:16:36.934Z,28.00
2018-10-05T05:18:29.833Z,36.00
2018-10-05T05:19:29.879Z,40.00
2018-10-05T05:21:22.766Z,52.00
2018-10-05T05:22:22.773Z,60.00
2018-10-05T05:24:15.667Z,76.00
2018-10-05T05:25:15.686Z,88.00
2018-10-05T05:27:08.590Z,108.00
2018-10-05T05:28:08.596Z,120.00
2018-10-05T05:30:01.506Z,152.00
2018-10-05T05:31:01.514Z,164.00
2018-10-05T05:32:54.411Z,200.00
2018-10-05T05:33:54.461Z,220.00
2018-10-05T05:35:47.335Z,260.00
2018-10-05T05:36:47.338Z,280.00
2018-10-05T05:38:40.240Z,332.00
2018-10-05T05:39:40.257Z,356.00
2018-10-05T05:41:33.157Z,412.00
2018-10-05T05:42:33.164Z,436.00
2018-10-05T05:44:26.066Z,496.00
2018-10-05T05:45:26.086Z,528.00
2018-10-05T05:47:18.986Z,588.00
2018-10-05T05:48:18.995Z,624.00
2018-10-05T05:50:11.896Z,688.00
2018-10-05T05:51:11.902Z,724.00
2018-10-05T05:53:04.808Z,788.00
2018-10-05T05:54:04.895Z,828.00
2018-10-05T05:55:57.728Z,892.00
2018-10-05T05:56:57.735Z,924.00
2018-10-05T05:58:50.635Z,988.00
2018-10-05T05:59:50.653Z,1024.00
2018-10-05T06:01:43.559Z,1088.00
2018-10-05T06:02:43.562Z,1124.00
2018-10-05T06:04:36.459Z,1196.00
2018-10-05T06:05:36.475Z,1236.00
2018-10-05T06:07:29.377Z,1308.00
2018-10-05T06:08:29.384Z,1344.00
2018-10-05T06:10:22.296Z,1396.00
2018-10-05T06:11:22.301Z,1428.00
2018-10-05T06:13:15.203Z,1492.00
2018-10-05T06:14:15.220Z,1516.00
2018-10-05T06:16:08.206Z,1564.00
2018-10-05T06:17:08.136Z,1588.00
2018-10-05T06:19:01.034Z,1636.00
2018-10-05T06:20:01.048Z,1692.00
2018-10-05T06:21:54.334Z,2672.00
2018-10-05T06:22:54.166Z,3268.00
2018-10-05T06:24:47.068Z,3540.00
2018-10-05T06:25:47.081Z,3484.00
2018-10-05T06:27:39.990Z,3276.00
2018-10-05T06:28:40.003Z,3196.00
2018-10-05T06:30:32.916Z,3232.00
2018-10-05T06:31:32.914Z,3240.00
2018-10-05T06:33:25.982Z,2656.00
2018-10-05T06:34:25.992Z,2240.00
2018-10-05T06:36:19.905Z,2016.00
2018-10-05T06:37:19.909Z,2024.00
2018-10-05T06:39:12.862Z,2060.00
2018-10-05T06:40:12.828Z,2080.00
2018-10-05T06:42:05.780Z,2104.00
2018-10-05T06:43:05.748Z,2120.00
2018-10-05T06:44:58.652Z,2156.00
2018-10-05T06:45:58.670Z,2172.00
2018-10-05T06:47:51.575Z,2196.00
2018-10-05T06:48:51.588Z,2204.00
2018-10-05T06:50:44.493Z,2240.00
2018-10-05T06:51:44.503Z,2244.00
2018-10-05T06:53:37.406Z,2272.00
2018-10-05T06:54:37.421Z,2280.00
2018-10-05T06:56:30.328Z,2296.00
2018-10-05T06:57:30.335Z,2316.00
2018-10-05T06:59:23.232Z,2352.00
2018-10-05T07:00:23.255Z,2364.00
2018-10-05T07:02:16.160Z,2352.00
2018-10-05T07:03:16.170Z,2356.00
2018-10-05T07:05:09.069Z,2412.00
2018-10-05T07:06:09.088Z,2416.00
2018-10-05T07:08:02.057Z,2464.00
2018-10-05T07:09:02.006Z,2484.00
2018-10-05T07:10:54.925Z,2492.00
2018-10-05T07:11:54.922Z,2488.00
2018-10-05T07:13:47.823Z,2480.00
2018-10-05T07:14:47.840Z,2476.00
2018-10-05T07:16:40.751Z,2472.00
2018-10-05T07:17:40.756Z,2468.00
2018-10-05T07:19:33.658Z,2472.00
2018-10-05T07:20:33.678Z,2472.00
2018-10-05T07:22:26.628Z,2488.00
2018-10-05T07:23:26.593Z,2488.00
2018-10-05T07:25:19.498Z,2496.00
2018-10-05T07:26:19.513Z,2504.00
2018-10-05T07:28:12.444Z,2520.00
2018-10-05T07:29:12.432Z,2528.00
2018-10-05T07:31:05.333Z,2536.00
2018-10-05T07:32:05.350Z,2544.00
2018-10-05T07:33:58.264Z,2564.00
2018-10-05T07:34:58.266Z,2584.00
2018-10-05T07:36:51.206Z,2596.00
2018-10-05T07:37:51.192Z,2596.00
2018-10-05T07:39:44.099Z,2600.00
2018-10-05T07:40:44.104Z,2592.00
2018-10-05T07:42:37.015Z,2592.00
2018-10-05T07:43:37.026Z,2592.00
2018-10-05T07:45:29.930Z,2588.00
2018-10-05T07:46:29.945Z,2596.00
2018-10-05T07:48:22.848Z,2612.00
2018-10-05T07:49:22.863Z,2612.00
2018-10-05T07:51:15.765Z,2620.00
2018-10-05T07:52:15.780Z,2620.00
2018-10-05T07:54:08.692Z,2608.00
2018-10-05T07:55:08.696Z,2600.00
2018-10-05T07:57:01.609Z,2584.00
2018-10-05T07:58:01.620Z,2576.00
2018-10-05T07:59:55.014Z,2560.00
2018-10-05T08:00:55.027Z,2548.00
2018-10-05T08:02:47.942Z,2540.00
2018-10-05T08:03:47.953Z,2536.00
2018-10-05T08:05:40.856Z,2532.00
2018-10-05T08:06:40.874Z,2532.00
2018-10-05T08:08:33.790Z,2532.00
2018-10-05T08:09:33.859Z,2532.00
2018-10-05T08:11:26.695Z,2532.00
2018-10-05T08:12:26.716Z,2532.00
2018-10-05T08:14:19.633Z,2524.00
2018-10-05T08:15:19.640Z,2520.00
2018-10-05T08:17:12.755Z,2516.00
2018-10-05T08:18:12.764Z,2512.00
2018-10-05T08:20:05.669Z,2504.00
2018-10-05T08:21:05.735Z,2504.00
2018-10-05T08:22:58.598Z,2504.00
2018-10-05T08:23:58.607Z,2504.00
2018-10-05T08:25:51.581Z,2496.00
2018-10-05T08:26:51.529Z,2496.00
2018-10-05T08:28:44.444Z,2500.00
2018-10-05T08:29:44.454Z,2492.00
2018-10-05T08:31:37.356Z,2480.00
2018-10-05T08:32:37.372Z,2476.00
2018-10-05T08:34:30.374Z,2476.00
2018-10-05T08:35:30.301Z,2472.00
2018-10-05T08:37:23.210Z,2464.00
2018-10-05T08:38:23.221Z,2464.00
2018-10-05T08:40:16.232Z,2452.00
2018-10-05T08:41:16.142Z,2452.00
2018-10-05T08:43:09.058Z,2448.00
2018-10-05T08:44:09.065Z,2444.00
2018-10-05T08:46:02.047Z,2440.00
2018-10-05T08:47:01.996Z,2432.00
2018-10-05T08:48:54.902Z,2436.00
2018-10-05T08:49:54.914Z,2432.00
2018-10-05T08:51:47.865Z,2424.00
2018-10-05T08:52:47.838Z,2428.00
2018-10-05T08:54:40.757Z,2424.00
2018-10-05T08:55:40.765Z,2424.00
2018-10-05T08:57:33.672Z,2420.00
2018-10-05T08:58:33.688Z,2420.00
2018-10-05T09:00:26.626Z,2412.00
2018-10-05T09:01:26.614Z,2412.00
2018-10-05T09:03:19.528Z,2412.00
2018-10-05T09:04:19.537Z,2416.00
2018-10-05T09:06:12.446Z,2416.00
2018-10-05T09:07:12.467Z,2416.00
2018-10-05T09:09:05.378Z,2428.00
2018-10-05T09:10:05.389Z,2428.00
2018-10-05T09:11:58.293Z,2424.00
2018-10-05T09:12:58.312Z,2424.00
2018-10-05T09:14:51.232Z,2428.00
2018-10-05T09:15:51.244Z,2432.00
2018-10-05T09:17:44.238Z,2428.00
2018-10-05T09:18:44.170Z,2424.00
2018-10-05T09:20:37.074Z,2424.00
2018-10-05T09:21:37.092Z,2416.00
2018-10-05T09:23:30.010Z,2420.00
2018-10-05T09:24:30.017Z,2420.00
2018-10-05T09:26:22.929Z,2420.00
2018-10-05T09:27:22.947Z,2420.00
2018-10-05T09:29:15.898Z,2420.00
2018-10-05T09:30:15.880Z,2420.00
2018-10-05T09:32:09.822Z,2428.00
2018-10-05T09:33:09.811Z,2432.00
2018-10-05T09:35:02.728Z,2436.00
2018-10-05T09:36:02.745Z,2428.00
2018-10-05T09:37:55.742Z,2428.00
2018-10-05T09:38:55.663Z,2428.00
2018-10-05T09:40:48.570Z,2432.00
2018-10-05T09:41:48.592Z,2428.00
2018-10-05T09:43:41.513Z,2412.00
2018-10-05T09:44:41.526Z,2416.00
2018-10-05T09:46:34.436Z,2416.00
2018-10-05T09:47:34.456Z,2416.00
2018-10-05T09:49:27.377Z,2412.00
2018-10-05T09:50:27.382Z,2412.00
2018-10-05T09:52:20.361Z,2408.00
2018-10-05T09:53:20.315Z,2416.00
2018-10-05T09:55:13.231Z,2416.00
2018-10-05T09:56:13.240Z,2420.00
2018-10-05T09:58:06.165Z,2432.00
2018-10-05T09:59:06.174Z,2428.00
2018-10-05T10:00:59.076Z,2404.00
2018-10-05T10:01:59.096Z,2416.00
2018-10-05T10:03:52.015Z,2424.00
2018-10-05T10:04:52.025Z,2412.00
2018-10-05T10:06:44.935Z,2400.00
2018-10-05T10:07:44.970Z,2392.00
2018-10-05T10:09:37.878Z,2388.00
2018-10-05T10:10:37.891Z,2396.00
2018-10-05T12:31:00.585Z,2376.00
2018-10-05T12:32:00.599Z,2364.00
2018-10-05T12:33:53.506Z,2368.00
2018-10-05T12:34:53.531Z,2376.00
2018-10-05T12:36:46.449Z,2360.00
2018-10-05T12:37:46.461Z,2352.00
2018-10-05T12:39:39.375Z,2324.00
2018-10-05T12:40:39.397Z,2316.00
2018-10-05T12:42:33.326Z,2328.00
2018-10-05T12:43:33.341Z,2316.00
2018-10-05T12:45:26.262Z,2312.00
2018-10-05T12:46:26.273Z,2320.00
2018-10-05T12:48:19.187Z,2336.00
2018-10-05T12:49:19.209Z,2344.00
2018-10-05T12:51:12.125Z,2336.00
2018-10-05T12:52:12.143Z,2328.00
2018-10-05T12:54:05.055Z,2332.00
2018-10-05T12:55:05.078Z,2312.00
2018-10-05T12:56:57.997Z,2328.00
2018-10-05T12:57:58.019Z,2332.00
2018-10-05T12:59:50.925Z,2316.00
2018-10-05T13:00:50.948Z,2312.00
2018-10-05T13:02:43.869Z,2296.00
2018-10-05T13:03:43.886Z,2312.00
2018-10-05T13:05:36.807Z,2324.00
2018-10-05T13:06:36.824Z,2320.00
2018-10-05T13:08:29.737Z,2320.00
2018-10-05T13:09:29.759Z,2324.00
2018-10-05T13:11:22.686Z,2336.00
2018-10-05T13:12:22.701Z,2336.00
2018-10-05T13:14:15.633Z,2336.00
2018-10-05T13:15:15.671Z,2332.00
2018-10-05T13:17:08.558Z,2324.00
2018-10-05T13:18:08.574Z,2324.00
2018-10-05T13:20:01.485Z,2312.00
2018-10-05T13:21:01.509Z,2304.00
2018-10-05T13:22:54.436Z,2296.00
2018-10-05T13:23:54.447Z,2300.00
2018-10-05T13:25:47.573Z,2308.00
2018-10-05T13:26:47.590Z,2308.00
2018-10-05T13:28:40.540Z,2304.00
2018-10-05T13:29:40.551Z,2296.00
2018-10-05T13:31:33.476Z,2272.00
2018-10-05T13:32:33.494Z,2272.00
2018-10-05T13:34:26.423Z,2248.00
2018-10-05T13:35:26.429Z,2264.00
2018-10-05T13:37:19.396Z,2288.00
2018-10-05T13:38:19.362Z,2284.00
2018-10-05T17:30:35.916Z,0.00
2018-10-05T17:31:35.923Z,0.00
2018-10-05T17:33:28.839Z,0.00
2018-10-05T17:34:28.848Z,0.00
2018-10-05T17:36:21.764Z,0.00
2018-10-05T17:37:21.777Z,0.00
2018-10-05T17:39:14.696Z,0.00
2018-10-05T17:40:14.705Z,0.00
2018-10-05T17:42:07.609Z,0.00
2018-10-05T17:43:07.630Z,0.00
2018-10-05T17:45:00.560Z,0.00
2018-10-05T17:46:00.564Z,0.00
2018-10-05T17:47:53.486Z,0.00
2018-10-05T17:48:53.502Z,0.00
2018-10-05T17:50:46.420Z,0.00
2018-10-05T17:51:46.431Z,0.00
2018-10-05T17:53:39.342Z,0.00
2018-10-05T17:54:39.362Z,0.00
2018-10-05T17:56:32.274Z,0.00
2018-10-05T17:57:32.287Z,0.00
2018-10-05T17:59:25.207Z,0.00
2018-10-05T18:00:25.215Z,0.00
2018-10-05T18:02:18.188Z,0.00
2018-10-05T18:03:18.220Z,0.00
2018-10-05T18:05:11.384Z,0.00
2018-10-05T18:06:11.318Z,0.00
2018-10-05T18:08:04.453Z,0.00
2018-10-05T18:09:04.576Z,0.00
2018-10-05T18:10:58.596Z,0.00
2018-10-05T18:11:58.606Z,0.00
2018-10-05T18:13:51.518Z,0.00
2018-10-05T18:14:51.650Z,0.00
2018-10-05T18:16:44.465Z,0.00
2018-10-05T18:17:44.536Z,0.00
2018-10-05T18:19:37.396Z,0.00
2018-10-05T18:20:37.432Z,0.00
2018-10-05T18:22:30.372Z,0.00
2018-10-05T18:23:30.354Z,0.00
2018-10-05T18:25:23.523Z,0.00
2018-10-05T18:26:23.512Z,0.00
2018-10-05T18:28:16.436Z,0.00
2018-10-05T18:29:16.460Z,0.00
2018-10-05T18:31:09.573Z,0.00
2018-10-05T18:32:09.583Z,0.00
2018-10-05T18:34:02.789Z,0.00
2018-10-05T18:35:02.745Z,0.00
2018-10-05T18:36:55.704Z,0.00
2018-10-05T18:37:55.756Z,0.00
2018-10-05T18:39:48.751Z,0.00
2018-10-05T18:40:48.668Z,0.00
2018-10-05T18:42:42.613Z,0.00
2018-10-05T18:43:42.663Z,0.00
2018-10-05T18:45:35.566Z,0.00
2018-10-05T18:46:35.579Z,0.00
2018-10-05T18:48:28.525Z,0.00
2018-10-05T18:49:28.526Z,0.00
2018-10-05T18:51:21.558Z,0.00
2018-10-05T18:52:21.564Z,0.00
2018-10-05T18:54:14.648Z,0.00
2018-10-05T18:55:14.622Z,0.00
2018-10-05T18:57:07.580Z,0.00
2018-10-05T18:58:07.580Z,0.00
2018-10-05T19:00:01.500Z,0.00
2018-10-05T19:01:01.509Z,0.00
2018-10-05T19:02:54.356Z,0.00
2018-10-05T19:03:54.377Z,0.00
2018-10-05T19:05:47.293Z,0.00
2018-10-05T19:06:47.356Z,0.00
2018-10-05T19:08:40.212Z,0.00
2018-10-05T19:09:40.230Z,0.00
2018-10-05T19:11:33.145Z,0.00
2018-10-05T19:12:33.159Z,0.00
2018-10-05T19:14:26.068Z,0.00
2018-10-05T19:15:26.084Z,0.00
2018-10-05T19:17:18.997Z,0.00
2018-10-05T19:18:19.009Z,0.00
2018-10-05T19:20:11.918Z,0.00
2018-10-05T19:21:12.475Z,0.00
2018-10-05T19:23:04.846Z,0.00
2018-10-05T19:24:04.875Z,0.00
2018-10-05T19:25:57.832Z,0.00
2018-10-05T19:26:57.798Z,0.00
2018-10-05T19:28:50.694Z,0.00
2018-10-05T19:29:50.716Z,0.00
2018-10-05T19:31:43.627Z,0.00
2018-10-05T19:32:43.638Z,0.00
2018-10-05T19:34:36.545Z,0.00
2018-10-05T19:35:36.572Z,0.00
2018-10-05T19:37:29.903Z,0.00
2018-10-05T19:38:29.916Z,0.00
2018-10-05T19:40:22.833Z,0.00
2018-10-05T19:41:22.844Z,0.00
2018-10-05T19:43:15.751Z,0.00
2018-10-05T19:44:15.769Z,0.00
2018-10-05T19:46:08.680Z,0.00
2018-10-05T19:47:08.697Z,0.00
2018-10-05T19:49:01.599Z,0.00
2018-10-05T19:50:01.620Z,0.00
2018-10-05T19:51:54.533Z,0.00
2018-10-05T19:52:54.555Z,0.00
2018-10-05T19:54:47.454Z,0.00
2018-10-05T19:55:47.472Z,0.00
2018-10-05T19:57:40.391Z,0.00
2018-10-05T19:58:40.405Z,0.00
2018-10-05T20:00:33.331Z,0.00
2018-10-05T20:01:33.337Z,0.00
2018-10-05T20:03:26.245Z,0.00
2018-10-05T20:04:26.269Z,0.00
2018-10-05T20:06:19.209Z,0.00
2018-10-05T20:07:19.227Z,0.00
2018-10-05T20:09:12.128Z,0.00
2018-10-05T20:10:12.142Z,0.00
2018-10-05T20:12:05.056Z,0.00
2018-10-05T20:13:05.068Z,0.00
2018-10-05T20:14:57.976Z,0.00
2018-10-05T20:15:57.996Z,0.00
2018-10-05T20:17:50.958Z,0.00
2018-10-05T20:18:50.921Z,0.00
2018-10-05T20:20:43.838Z,0.00
2018-10-05T20:21:43.854Z,0.00
2018-10-05T20:23:36.757Z,0.00
2018-10-05T20:24:36.776Z,0.00
2018-10-05T20:26:29.693Z,0.00
2018-10-05T20:27:29.701Z,0.00
2018-10-05T20:29:22.605Z,0.00
2018-10-05T20:30:22.623Z,0.00
2018-10-05T20:32:15.538Z,0.00
2018-10-05T20:33:15.550Z,0.00
2018-10-05T20:35:08.458Z,0.00
2018-10-05T20:36:08.802Z,0.00
2018-10-05T20:38:01.389Z,0.00
2018-10-05T20:39:01.402Z,0.00
2018-10-05T20:40:54.343Z,0.00
2018-10-05T20:41:54.394Z,0.00
2018-10-05T20:43:47.226Z,0.00
2018-10-05T20:44:47.248Z,0.00
2018-10-05T20:46:40.157Z,0.00
2018-10-05T20:47:40.172Z,0.00
2018-10-05T20:49:33.080Z,0.00
2018-10-05T20:50:33.098Z,0.00
2018-10-05T20:52:26.000Z,0.00
2018-10-05T20:53:26.012Z,0.00
2018-10-05T20:55:18.917Z,0.00
2018-10-05T20:56:18.936Z,0.00
2018-10-05T20:58:11.865Z,0.00
2018-10-05T20:59:11.877Z,0.00
2018-10-05T21:01:04.805Z,0.00
2018-10-05T21:02:04.802Z,0.00
2018-10-05T21:03:57.714Z,0.00
2018-10-05T21:04:57.724Z,0.00
2018-10-05T21:06:50.700Z,0.00
2018-10-05T21:07:50.697Z,0.00
2018-10-05T21:09:43.582Z,0.00
2018-10-05T21:10:43.575Z,0.00
2018-10-05T21:12:36.555Z,0.00
2018-10-05T21:13:36.520Z,0.00
2018-10-05T21:15:29.425Z,0.00
2018-10-05T21:16:29.448Z,0.00
2018-10-05T21:18:22.354Z,0.00
2018-10-05T21:19:22.397Z,0.00
2018-10-05T21:21:15.284Z,0.00
2018-10-05T21:22:15.303Z,0.00
2018-10-05T21:24:08.417Z,0.00
2018-10-05T21:25:08.424Z,0.00
2018-10-05T21:27:01.338Z,0.00
2018-10-05T21:28:01.345Z,0.00
2018-10-05T21:29:54.262Z,0.00
2018-10-05T21:30:54.282Z,0.00
2018-10-05T21:32:47.227Z,0.00
2018-10-05T21:33:47.211Z,0.00
2018-10-05T21:35:40.104Z,0.00
2018-10-05T21:36:40.121Z,0.00
2018-10-05T21:38:33.037Z,0.00
2018-10-05T21:39:33.044Z,0.00
2018-10-05T21:41:25.956Z,0.00
2018-10-05T21:42:25.974Z,0.00
2018-10-05T21:44:18.888Z,0.00
2018-10-05T21:45:18.900Z,0.00
2018-10-05T21:47:11.812Z,0.00
2018-10-05T21:48:11.821Z,0.00
2018-10-05T21:50:04.722Z,0.00
2018-10-05T21:51:04.740Z,0.00
2018-10-05T21:52:57.654Z,0.00
2018-10-05T21:53:57.663Z,0.00
2018-10-05T21:55:50.564Z,0.00
2018-10-05T21:56:50.585Z,0.00
2018-10-05T21:58:43.492Z,0.00
2018-10-05T21:59:43.528Z,0.00
2018-10-05T22:01:36.406Z,0.00
2018-10-05T22:02:36.424Z,0.00
2018-10-05T22:04:29.337Z,0.00
2018-10-05T22:05:29.346Z,0.00
2018-10-05T22:07:22.254Z,0.00
2018-10-05T22:08:22.266Z,0.00
2018-10-05T22:10:15.168Z,0.00
2018-10-05T22:11:15.187Z,0.00
2018-10-05T22:13:08.103Z,0.00
2018-10-05T22:14:08.106Z,0.00
2018-10-05T22:16:01.011Z,0.00
2018-10-05T22:17:01.028Z,0.00
2018-10-05T22:18:53.938Z,0.00
2018-10-05T22:19:53.972Z,0.00
2018-10-05T22:21:46.849Z,0.00
2018-10-05T22:22:46.869Z,0.00
2018-10-05T22:24:39.778Z,0.00
2018-10-05T22:25:39.786Z,0.00
2018-10-05T22:27:32.701Z,0.00
2018-10-05T22:28:32.711Z,0.00
2018-10-05T22:30:25.615Z,0.00
2018-10-05T22:31:25.630Z,0.00
2018-10-05T22:33:18.540Z,0.00
2018-10-05T22:34:18.549Z,0.00
2018-10-05T22:36:11.451Z,0.00
2018-10-05T22:37:11.473Z,0.00
2018-10-05T22:39:04.381Z,0.00
2018-10-05T22:40:04.391Z,0.00
2018-10-05T22:41:57.470Z,0.00
2018-10-05T22:42:57.489Z,0.00
2018-10-05T22:44:50.404Z,0.00
2018-10-05T22:45:50.416Z,0.00
2018-10-05T22:47:43.331Z,0.00
2018-10-05T22:48:43.337Z,0.00
2018-10-05T22:50:36.244Z,0.00
2018-10-05T22:51:36.258Z,0.00
2018-10-05T22:53:29.174Z,0.00
2018-10-05T22:54:29.188Z,0.00
2018-10-05T22:56:22.084Z,0.00
2018-10-05T22:57:22.100Z,0.00
2018-10-05T22:59:15.010Z,0.00
2018-10-05T23:00:15.024Z,0.00
2018-10-05T23:02:07.926Z,0.00
2018-10-05T23:03:07.944Z,0.00
2018-10-05T23:05:00.851Z,0.00
2018-10-05T23:06:00.860Z,0.00
2018-10-05T23:07:53.773Z,0.00
2018-10-05T23:08:53.787Z,0.00
2018-10-05T23:10:46.689Z,0.00
2018-10-05T23:11:46.707Z,0.00
2018-10-05T23:13:39.826Z,0.00
2018-10-05T23:14:39.838Z,0.00
2018-10-05T23:16:33.737Z,0.00
2018-10-05T23:17:33.754Z,0.00
2018-10-05T23:19:26.665Z,0.00
2018-10-05T23:20:26.672Z,0.00
2018-10-05T23:22:19.775Z,0.00
2018-10-05T23:23:19.793Z,0.00
2018-10-05T23:25:12.699Z,0.00
2018-10-05T23:26:12.712Z,0.00
2018-10-05T23:28:05.618Z,0.00
2018-10-05T23:29:05.627Z,0.00
2018-10-05T23:30:58.529Z,0.00
2018-10-05T23:31:58.548Z,0.00
2018-10-05T23:33:51.460Z,0.00
2018-10-05T23:34:51.470Z,0.00
2018-10-05T23:36:44.367Z,0.00
2018-10-05T23:37:44.386Z,0.00
2018-10-05T23:39:37.297Z,0.00
2018-10-05T23:40:37.309Z,0.00
2018-10-05T23:42:30.212Z,0.00
2018-10-05T23:43:30.227Z,0.00
2018-10-05T23:45:23.140Z,0.00
2018-10-05T23:46:23.145Z,0.00
2018-10-05T23:48:16.055Z,0.00
2018-10-05T23:49:16.067Z,0.00
2018-10-05T23:51:08.971Z,0.00
2018-10-05T23:52:08.986Z,0.00
2018-10-05T23:54:01.894Z,0.00
2018-10-05T23:55:01.907Z,0.00
2018-10-05T23:56:54.806Z,0.00
2018-10-05T23:57:54.828Z,0.00
2018-10-05T23:59:47.740Z,0.00
